sensor_id;sensor_type;location;lat;lon;timestamp;P1;durP1;ratioP1;P2;durP2;ratioP2
4957;SDS011;2494;51.872;9.688;2023-05-02T00:02:21;12.43;;;10.10;;
4957;SDS011;2494;51.872;9.688;2023-05-02T00:05:06;12.00;;;10.87;;
4957;SDS011;2494;51.872;9.688;2023-05-02T00:07:51;11.13;;;9.10;;
4957;SDS011;2494;51.872;9.688;2023-05-02T00:10:36;10.77;;;9.67;;
4957;SDS011;2494;51.872;9.688;2023-05-02T00:13:21;11.03;;;9.63;;
4957;SDS011;2494;51.872;9.688;2023-05-02T00:16:06;10.53;;;9.63;;
4957;SDS011;2494;51.872;9.688;2023-05-02T00:18:53;11.10;;;10.00;;
4957;SDS011;2494;51.872;9.688;2023-05-02T00:21:39;10.37;;;9.30;;
4957;SDS011;2494;51.872;9.688;2023-05-02T00:24:23;10.50;;;9.50;;
4957;SDS011;2494;51.872;9.688;2023-05-02T00:27:09;12.63;;;9.83;;
4957;SDS011;2494;51.872;9.688;2023-05-02T00:29:55;11.27;;;10.13;;
4957;SDS011;2494;51.872;9.688;2023-05-02T00:32:39;10.17;;;9.27;;
4957;SDS011;2494;51.872;9.688;2023-05-02T00:35:26;11.37;;;10.13;;
4957;SDS011;2494;51.872;9.688;2023-05-02T00:38:11;11.13;;;9.97;;
4957;SDS011;2494;51.872;9.688;2023-05-02T00:40:58;9.43;;;8.63;;
4957;SDS011;2494;51.872;9.688;2023-05-02T00:43:43;10.40;;;9.40;;
4957;SDS011;2494;51.872;9.688;2023-05-02T00:46:28;9.90;;;8.93;;
4957;SDS011;2494;51.872;9.688;2023-05-02T00:49:13;9.57;;;8.70;;
4957;SDS011;2494;51.872;9.688;2023-05-02T00:52:00;9.33;;;8.53;;
4957;SDS011;2494;51.872;9.688;2023-05-02T00:54:45;12.20;;;9.60;;
4957;SDS011;2494;51.872;9.688;2023-05-02T00:57:30;10.13;;;9.23;;
4957;SDS011;2494;51.872;9.688;2023-05-02T01:00:16;9.67;;;8.53;;
4957;SDS011;2494;51.872;9.688;2023-05-02T01:03:04;9.17;;;8.27;;
4957;SDS011;2494;51.872;9.688;2023-05-02T01:05:56;10.23;;;9.27;;
4957;SDS011;2494;51.872;9.688;2023-05-02T01:08:46;11.83;;;9.13;;
4957;SDS011;2494;51.872;9.688;2023-05-02T01:11:37;10.23;;;8.90;;
4957;SDS011;2494;51.872;9.688;2023-05-02T01:14:23;10.07;;;9.17;;
4957;SDS011;2494;51.872;9.688;2023-05-02T01:17:10;9.17;;;8.37;;
4957;SDS011;2494;51.872;9.688;2023-05-02T01:19:57;10.60;;;8.97;;
4957;SDS011;2494;51.872;9.688;2023-05-02T01:22:42;8.30;;;7.57;;
4957;SDS011;2494;51.872;9.688;2023-05-02T01:25:30;9.23;;;8.43;;
4957;SDS011;2494;51.872;9.688;2023-05-02T01:28:19;9.40;;;8.70;;
4957;SDS011;2494;51.872;9.688;2023-05-02T01:31:07;8.73;;;7.93;;
4957;SDS011;2494;51.872;9.688;2023-05-02T01:33:53;7.80;;;7.10;;
4957;SDS011;2494;51.872;9.688;2023-05-02T01:36:40;8.70;;;8.00;;
4957;SDS011;2494;51.872;9.688;2023-05-02T01:39:26;8.50;;;7.70;;
4957;SDS011;2494;51.872;9.688;2023-05-02T01:42:12;8.00;;;7.40;;
4957;SDS011;2494;51.872;9.688;2023-05-02T01:44:57;9.07;;;8.27;;
4957;SDS011;2494;51.872;9.688;2023-05-02T01:47:45;8.23;;;7.43;;
4957;SDS011;2494;51.872;9.688;2023-05-02T01:50:31;8.63;;;7.77;;
4957;SDS011;2494;51.872;9.688;2023-05-02T01:53:16;8.43;;;7.73;;
4957;SDS011;2494;51.872;9.688;2023-05-02T01:56:01;7.83;;;7.33;;
4957;SDS011;2494;51.872;9.688;2023-05-02T01:58:47;8.20;;;7.40;;
4957;SDS011;2494;51.872;9.688;2023-05-02T02:01:33;8.37;;;7.77;;
4957;SDS011;2494;51.872;9.688;2023-05-02T02:04:20;7.30;;;6.83;;
4957;SDS011;2494;51.872;9.688;2023-05-02T02:07:07;7.13;;;6.73;;
4957;SDS011;2494;51.872;9.688;2023-05-02T02:09:53;8.33;;;7.60;;
4957;SDS011;2494;51.872;9.688;2023-05-02T02:12:39;8.83;;;8.00;;
4957;SDS011;2494;51.872;9.688;2023-05-02T02:15:26;9.20;;;8.40;;
4957;SDS011;2494;51.872;9.688;2023-05-02T02:18:12;8.00;;;7.50;;
4957;SDS011;2494;51.872;9.688;2023-05-02T02:20:59;8.77;;;8.03;;
4957;SDS011;2494;51.872;9.688;2023-05-02T02:23:45;7.83;;;7.33;;
4957;SDS011;2494;51.872;9.688;2023-05-02T02:26:31;9.53;;;8.73;;
4957;SDS011;2494;51.872;9.688;2023-05-02T02:29:17;7.90;;;7.37;;
4957;SDS011;2494;51.872;9.688;2023-05-02T02:32:02;8.47;;;7.67;;
4957;SDS011;2494;51.872;9.688;2023-05-02T02:34:48;9.23;;;8.43;;
4957;SDS011;2494;51.872;9.688;2023-05-02T02:37:36;8.30;;;7.70;;
4957;SDS011;2494;51.872;9.688;2023-05-02T02:40:25;8.33;;;7.83;;
4957;SDS011;2494;51.872;9.688;2023-05-02T02:43:16;8.00;;;7.30;;
4957;SDS011;2494;51.872;9.688;2023-05-02T02:46:07;8.70;;;8.00;;
4957;SDS011;2494;51.872;9.688;2023-05-02T02:48:54;9.47;;;8.67;;
4957;SDS011;2494;51.872;9.688;2023-05-02T02:51:43;8.20;;;7.50;;
4957;SDS011;2494;51.872;9.688;2023-05-02T02:54:32;8.20;;;7.60;;
4957;SDS011;2494;51.872;9.688;2023-05-02T02:57:22;10.90;;;10.00;;
4957;SDS011;2494;51.872;9.688;2023-05-02T03:00:10;13.97;;;12.57;;
4957;SDS011;2494;51.872;9.688;2023-05-02T03:02:57;15.37;;;13.93;;
4957;SDS011;2494;51.872;9.688;2023-05-02T03:05:42;14.93;;;13.43;;
4957;SDS011;2494;51.872;9.688;2023-05-02T03:08:27;13.40;;;12.20;;
4957;SDS011;2494;51.872;9.688;2023-05-02T03:11:24;14.93;;;13.40;;
4957;SDS011;2494;51.872;9.688;2023-05-02T03:14:09;16.67;;;14.90;;
4957;SDS011;2494;51.872;9.688;2023-05-02T03:16:54;15.10;;;13.23;;
4957;SDS011;2494;51.872;9.688;2023-05-02T03:19:40;15.50;;;14.00;;
4957;SDS011;2494;51.872;9.688;2023-05-02T03:22:25;15.33;;;13.93;;
4957;SDS011;2494;51.872;9.688;2023-05-02T03:25:10;13.90;;;12.60;;
4957;SDS011;2494;51.872;9.688;2023-05-02T03:27:57;14.37;;;13.07;;
4957;SDS011;2494;51.872;9.688;2023-05-02T03:30:42;15.47;;;14.07;;
4957;SDS011;2494;51.872;9.688;2023-05-02T03:33:27;16.83;;;15.13;;
4957;SDS011;2494;51.872;9.688;2023-05-02T03:36:13;15.13;;;13.73;;
4957;SDS011;2494;51.872;9.688;2023-05-02T03:38:58;16.80;;;14.70;;
4957;SDS011;2494;51.872;9.688;2023-05-02T03:41:43;15.30;;;13.87;;
4957;SDS011;2494;51.872;9.688;2023-05-02T03:44:30;15.70;;;14.17;;
4957;SDS011;2494;51.872;9.688;2023-05-02T03:47:16;15.93;;;14.27;;
4957;SDS011;2494;51.872;9.688;2023-05-02T03:50:01;16.00;;;14.37;;
4957;SDS011;2494;51.872;9.688;2023-05-02T03:52:46;16.67;;;15.00;;
4957;SDS011;2494;51.872;9.688;2023-05-02T03:55:31;16.03;;;14.37;;
4957;SDS011;2494;51.872;9.688;2023-05-02T03:58:17;16.57;;;14.87;;
4957;SDS011;2494;51.872;9.688;2023-05-02T04:01:07;15.40;;;14.10;;
4957;SDS011;2494;51.872;9.688;2023-05-02T04:03:57;15.43;;;14.00;;
4957;SDS011;2494;51.872;9.688;2023-05-02T04:06:42;16.63;;;14.40;;
4957;SDS011;2494;51.872;9.688;2023-05-02T04:09:28;15.23;;;13.63;;
4957;SDS011;2494;51.872;9.688;2023-05-02T04:12:13;16.07;;;14.57;;
4957;SDS011;2494;51.872;9.688;2023-05-02T04:14:59;16.63;;;15.03;;
4957;SDS011;2494;51.872;9.688;2023-05-02T04:17:45;20.80;;;13.87;;
4957;SDS011;2494;51.872;9.688;2023-05-02T04:20:31;14.50;;;13.20;;
4957;SDS011;2494;51.872;9.688;2023-05-02T04:23:16;15.60;;;14.13;;
4957;SDS011;2494;51.872;9.688;2023-05-02T04:26:01;17.10;;;15.40;;
4957;SDS011;2494;51.872;9.688;2023-05-02T04:28:47;16.57;;;14.83;;
4957;SDS011;2494;51.872;9.688;2023-05-02T04:31:32;18.30;;;16.40;;
4957;SDS011;2494;51.872;9.688;2023-05-02T04:34:19;17.77;;;16.00;;
4957;SDS011;2494;51.872;9.688;2023-05-02T04:37:04;16.77;;;14.57;;
4957;SDS011;2494;51.872;9.688;2023-05-02T04:39:49;16.10;;;14.67;;
4957;SDS011;2494;51.872;9.688;2023-05-02T04:42:35;17.67;;;15.73;;
4957;SDS011;2494;51.872;9.688;2023-05-02T04:45:22;15.93;;;14.63;;
4957;SDS011;2494;51.872;9.688;2023-05-02T04:48:07;16.97;;;15.33;;
4957;SDS011;2494;51.872;9.688;2023-05-02T04:50:54;17.63;;;15.67;;
4957;SDS011;2494;51.872;9.688;2023-05-02T04:53:39;17.77;;;15.90;;
4957;SDS011;2494;51.872;9.688;2023-05-02T04:56:24;18.47;;;16.30;;
4957;SDS011;2494;51.872;9.688;2023-05-02T04:59:09;18.40;;;16.60;;
4957;SDS011;2494;51.872;9.688;2023-05-02T05:01:55;19.97;;;17.63;;
4957;SDS011;2494;51.872;9.688;2023-05-02T05:04:40;19.40;;;17.23;;
4957;SDS011;2494;51.872;9.688;2023-05-02T05:07:27;22.23;;;18.40;;
4957;SDS011;2494;51.872;9.688;2023-05-02T05:10:12;19.87;;;17.63;;
4957;SDS011;2494;51.872;9.688;2023-05-02T05:12:57;18.40;;;16.50;;
4957;SDS011;2494;51.872;9.688;2023-05-02T05:15:42;22.70;;;17.43;;
4957;SDS011;2494;51.872;9.688;2023-05-02T05:18:28;21.20;;;18.87;;
4957;SDS011;2494;51.872;9.688;2023-05-02T05:21:14;24.20;;;20.20;;
4957;SDS011;2494;51.872;9.688;2023-05-02T05:24:01;24.43;;;19.67;;
4957;SDS011;2494;51.872;9.688;2023-05-02T05:26:47;20.53;;;18.53;;
4957;SDS011;2494;51.872;9.688;2023-05-02T05:29:32;20.90;;;18.80;;
4957;SDS011;2494;51.872;9.688;2023-05-02T05:32:17;21.20;;;18.90;;
4957;SDS011;2494;51.872;9.688;2023-05-02T05:35:03;20.23;;;16.60;;
4957;SDS011;2494;51.872;9.688;2023-05-02T05:37:48;24.17;;;17.43;;
4957;SDS011;2494;51.872;9.688;2023-05-02T05:40:34;26.43;;;17.97;;
4957;SDS011;2494;51.872;9.688;2023-05-02T05:43:19;23.97;;;18.00;;
4957;SDS011;2494;51.872;9.688;2023-05-02T05:46:04;21.37;;;17.27;;
4957;SDS011;2494;51.872;9.688;2023-05-02T05:48:50;20.97;;;17.97;;
4957;SDS011;2494;51.872;9.688;2023-05-02T05:51:35;22.73;;;17.73;;
4957;SDS011;2494;51.872;9.688;2023-05-02T05:54:20;21.80;;;17.17;;
4957;SDS011;2494;51.872;9.688;2023-05-02T05:57:06;21.37;;;16.90;;
4957;SDS011;2494;51.872;9.688;2023-05-02T05:59:51;20.50;;;15.40;;
4957;SDS011;2494;51.872;9.688;2023-05-02T06:02:36;19.23;;;14.80;;
4957;SDS011;2494;51.872;9.688;2023-05-02T06:05:21;18.37;;;14.57;;
4957;SDS011;2494;51.872;9.688;2023-05-02T06:08:06;19.17;;;15.10;;
4957;SDS011;2494;51.872;9.688;2023-05-02T06:10:51;18.80;;;14.60;;
4957;SDS011;2494;51.872;9.688;2023-05-02T06:13:38;14.80;;;12.03;;
4957;SDS011;2494;51.872;9.688;2023-05-02T06:16:23;16.90;;;12.70;;
4957;SDS011;2494;51.872;9.688;2023-05-02T06:19:08;21.70;;;11.73;;
4957;SDS011;2494;51.872;9.688;2023-05-02T06:21:53;15.40;;;11.23;;
4957;SDS011;2494;51.872;9.688;2023-05-02T06:24:38;13.23;;;9.80;;
4957;SDS011;2494;51.872;9.688;2023-05-02T06:27:23;11.47;;;8.27;;
4957;SDS011;2494;51.872;9.688;2023-05-02T06:30:10;10.07;;;8.20;;
4957;SDS011;2494;51.872;9.688;2023-05-02T06:32:55;10.93;;;8.70;;
4957;SDS011;2494;51.872;9.688;2023-05-02T06:35:40;11.10;;;8.03;;
4957;SDS011;2494;51.872;9.688;2023-05-02T06:38:25;10.40;;;9.23;;
4957;SDS011;2494;51.872;9.688;2023-05-02T06:41:11;9.03;;;8.10;;
4957;SDS011;2494;51.872;9.688;2023-05-02T06:43:56;9.83;;;8.47;;
4957;SDS011;2494;51.872;9.688;2023-05-02T06:46:43;9.37;;;8.13;;
4957;SDS011;2494;51.872;9.688;2023-05-02T06:49:27;13.13;;;8.10;;
4957;SDS011;2494;51.872;9.688;2023-05-02T06:52:12;8.97;;;8.07;;
4957;SDS011;2494;51.872;9.688;2023-05-02T06:54:57;7.23;;;6.43;;
4957;SDS011;2494;51.872;9.688;2023-05-02T06:57:42;8.50;;;7.70;;
4957;SDS011;2494;51.872;9.688;2023-05-02T07:00:27;9.90;;;8.13;;
4957;SDS011;2494;51.872;9.688;2023-05-02T07:03:13;3.97;;;3.67;;
4957;SDS011;2494;51.872;9.688;2023-05-02T07:05:59;3.00;;;2.80;;
4957;SDS011;2494;51.872;9.688;2023-05-02T07:08:43;2.73;;;2.53;;
4957;SDS011;2494;51.872;9.688;2023-05-02T07:11:28;3.10;;;2.40;;
4957;SDS011;2494;51.872;9.688;2023-05-02T07:14:13;1.80;;;1.70;;
4957;SDS011;2494;51.872;9.688;2023-05-02T07:16:58;1.87;;;1.70;;
4957;SDS011;2494;51.872;9.688;2023-05-02T07:19:45;4.50;;;2.10;;
4957;SDS011;2494;51.872;9.688;2023-05-02T07:22:30;3.40;;;2.20;;
4957;SDS011;2494;51.872;9.688;2023-05-02T07:25:15;2.10;;;1.90;;
4957;SDS011;2494;51.872;9.688;2023-05-02T07:28:01;2.27;;;2.07;;
4957;SDS011;2494;51.872;9.688;2023-05-02T07:30:46;2.60;;;2.40;;
4957;SDS011;2494;51.872;9.688;2023-05-02T07:33:32;5.63;;;3.13;;
4957;SDS011;2494;51.872;9.688;2023-05-02T07:36:19;3.70;;;3.43;;
4957;SDS011;2494;51.872;9.688;2023-05-02T07:39:04;4.60;;;3.33;;
4957;SDS011;2494;51.872;9.688;2023-05-02T07:41:50;4.17;;;3.23;;
4957;SDS011;2494;51.872;9.688;2023-05-02T07:44:35;8.47;;;3.50;;
4957;SDS011;2494;51.872;9.688;2023-05-02T07:47:20;4.37;;;3.97;;
4957;SDS011;2494;51.872;9.688;2023-05-02T07:50:05;5.53;;;5.13;;
4957;SDS011;2494;51.872;9.688;2023-05-02T07:52:53;5.70;;;5.20;;
4957;SDS011;2494;51.872;9.688;2023-05-02T07:55:38;7.77;;;5.63;;
4957;SDS011;2494;51.872;9.688;2023-05-02T07:58:24;10.00;;;5.80;;
4957;SDS011;2494;51.872;9.688;2023-05-02T08:01:09;7.43;;;6.27;;
4957;SDS011;2494;51.872;9.688;2023-05-02T08:03:54;10.03;;;6.97;;
4957;SDS011;2494;51.872;9.688;2023-05-02T08:06:39;12.77;;;5.83;;
4957;SDS011;2494;51.872;9.688;2023-05-02T08:09:26;9.70;;;6.43;;
4957;SDS011;2494;51.872;9.688;2023-05-02T08:12:11;12.30;;;8.40;;
4957;SDS011;2494;51.872;9.688;2023-05-02T08:14:56;11.03;;;7.10;;
4957;SDS011;2494;51.872;9.688;2023-05-02T08:17:41;10.30;;;7.30;;
4957;SDS011;2494;51.872;9.688;2023-05-02T08:20:27;14.13;;;8.00;;
4957;SDS011;2494;51.872;9.688;2023-05-02T08:23:11;12.23;;;9.30;;
4957;SDS011;2494;51.872;9.688;2023-05-02T08:25:58;11.70;;;8.83;;
4957;SDS011;2494;51.872;9.688;2023-05-02T08:28:43;10.90;;;7.53;;
4957;SDS011;2494;51.872;9.688;2023-05-02T08:31:28;9.27;;;7.60;;
4957;SDS011;2494;51.872;9.688;2023-05-02T08:34:14;17.27;;;8.30;;
4957;SDS011;2494;51.872;9.688;2023-05-02T08:36:58;11.17;;;8.07;;
4957;SDS011;2494;51.872;9.688;2023-05-02T08:39:43;11.47;;;7.17;;
4957;SDS011;2494;51.872;9.688;2023-05-02T08:42:31;16.33;;;7.63;;
4957;SDS011;2494;51.872;9.688;2023-05-02T08:45:17;7.90;;;7.10;;
4957;SDS011;2494;51.872;9.688;2023-05-02T08:48:03;11.70;;;7.27;;
4957;SDS011;2494;51.872;9.688;2023-05-02T08:50:50;8.17;;;7.37;;
4957;SDS011;2494;51.872;9.688;2023-05-02T08:53:36;9.53;;;7.50;;
4957;SDS011;2494;51.872;9.688;2023-05-02T08:56:22;12.57;;;7.70;;
4957;SDS011;2494;51.872;9.688;2023-05-02T08:59:09;9.67;;;7.90;;
4957;SDS011;2494;51.872;9.688;2023-05-02T09:01:58;14.37;;;9.33;;
4957;SDS011;2494;51.872;9.688;2023-05-02T09:04:44;13.30;;;8.33;;
4957;SDS011;2494;51.872;9.688;2023-05-02T09:07:30;16.90;;;8.20;;
4957;SDS011;2494;51.872;9.688;2023-05-02T09:10:15;13.70;;;9.80;;
4957;SDS011;2494;51.872;9.688;2023-05-02T09:16:02;13.77;;;8.40;;
4957;SDS011;2494;51.872;9.688;2023-05-02T09:18:48;13.67;;;7.60;;
4957;SDS011;2494;51.872;9.688;2023-05-02T09:21:34;11.87;;;8.40;;
4957;SDS011;2494;51.872;9.688;2023-05-02T09:24:20;20.80;;;10.60;;
4957;SDS011;2494;51.872;9.688;2023-05-02T09:27:05;19.20;;;10.03;;
4957;SDS011;2494;51.872;9.688;2023-05-02T09:29:50;12.37;;;8.30;;
4957;SDS011;2494;51.872;9.688;2023-05-02T09:32:47;13.67;;;9.17;;
4957;SDS011;2494;51.872;9.688;2023-05-02T09:35:33;12.07;;;8.80;;
4957;SDS011;2494;51.872;9.688;2023-05-02T09:38:19;11.13;;;9.20;;
4957;SDS011;2494;51.872;9.688;2023-05-02T09:41:04;14.00;;;8.40;;
4957;SDS011;2494;51.872;9.688;2023-05-02T09:43:55;13.10;;;8.60;;
4957;SDS011;2494;51.872;9.688;2023-05-02T09:46:41;17.80;;;8.70;;
4957;SDS011;2494;51.872;9.688;2023-05-02T09:49:40;13.20;;;8.80;;
4957;SDS011;2494;51.872;9.688;2023-05-02T09:52:27;18.43;;;9.17;;
4957;SDS011;2494;51.872;9.688;2023-05-02T09:55:21;13.27;;;8.90;;
4957;SDS011;2494;51.872;9.688;2023-05-02T09:58:07;12.70;;;8.57;;
4957;SDS011;2494;51.872;9.688;2023-05-02T10:01:04;15.10;;;9.30;;
4957;SDS011;2494;51.872;9.688;2023-05-02T10:03:49;12.80;;;9.40;;
4957;SDS011;2494;51.872;9.688;2023-05-02T10:06:36;14.07;;;9.00;;
4957;SDS011;2494;51.872;9.688;2023-05-02T10:09:21;17.27;;;9.13;;
4957;SDS011;2494;51.872;9.688;2023-05-02T10:12:06;16.70;;;9.83;;
4957;SDS011;2494;51.872;9.688;2023-05-02T10:14:53;15.97;;;8.60;;
4957;SDS011;2494;51.872;9.688;2023-05-02T10:17:39;16.40;;;11.40;;
4957;SDS011;2494;51.872;9.688;2023-05-02T10:20:29;13.17;;;10.00;;
4957;SDS011;2494;51.872;9.688;2023-05-02T10:23:16;14.10;;;10.47;;
4957;SDS011;2494;51.872;9.688;2023-05-02T10:26:02;17.40;;;9.67;;
4957;SDS011;2494;51.872;9.688;2023-05-02T10:28:47;17.37;;;8.13;;
4957;SDS011;2494;51.872;9.688;2023-05-02T10:31:33;20.90;;;9.20;;
4957;SDS011;2494;51.872;9.688;2023-05-02T10:34:20;14.27;;;8.57;;
4957;SDS011;2494;51.872;9.688;2023-05-02T10:37:05;14.23;;;8.43;;
4957;SDS011;2494;51.872;9.688;2023-05-02T10:39:52;13.00;;;8.67;;
4957;SDS011;2494;51.872;9.688;2023-05-02T10:42:39;28.73;;;13.30;;
4957;SDS011;2494;51.872;9.688;2023-05-02T10:45:30;52.90;;;27.27;;
4957;SDS011;2494;51.872;9.688;2023-05-02T10:48:16;11.60;;;9.37;;
4957;SDS011;2494;51.872;9.688;2023-05-02T10:51:01;24.43;;;12.13;;
4957;SDS011;2494;51.872;9.688;2023-05-02T10:53:46;23.03;;;9.17;;
4957;SDS011;2494;51.872;9.688;2023-05-02T10:56:34;19.23;;;7.87;;
4957;SDS011;2494;51.872;9.688;2023-05-02T10:59:26;16.13;;;7.77;;
4957;SDS011;2494;51.872;9.688;2023-05-02T11:05:16;14.53;;;7.00;;
4957;SDS011;2494;51.872;9.688;2023-05-02T11:14:12;14.90;;;7.10;;
4957;SDS011;2494;51.872;9.688;2023-05-02T11:17:16;11.97;;;8.10;;
4957;SDS011;2494;51.872;9.688;2023-05-02T11:23:18;6.73;;;6.03;;
4957;SDS011;2494;51.872;9.688;2023-05-02T11:26:19;14.17;;;7.10;;
4957;SDS011;2494;51.872;9.688;2023-05-02T11:29:05;12.03;;;6.17;;
4957;SDS011;2494;51.872;9.688;2023-05-02T11:31:56;9.00;;;5.43;;
4957;SDS011;2494;51.872;9.688;2023-05-02T11:34:41;13.03;;;6.60;;
4957;SDS011;2494;51.872;9.688;2023-05-02T11:37:26;14.77;;;6.17;;
4957;SDS011;2494;51.872;9.688;2023-05-02T11:40:12;8.13;;;5.30;;
4957;SDS011;2494;51.872;9.688;2023-05-02T11:42:58;22.00;;;9.30;;
4957;SDS011;2494;51.872;9.688;2023-05-02T11:45:43;15.60;;;11.67;;
4957;SDS011;2494;51.872;9.688;2023-05-02T11:48:30;10.90;;;9.30;;
4957;SDS011;2494;51.872;9.688;2023-05-02T11:51:21;8.73;;;8.00;;
4957;SDS011;2494;51.872;9.688;2023-05-02T11:54:06;6.93;;;4.67;;
4957;SDS011;2494;51.872;9.688;2023-05-02T11:56:53;8.43;;;5.63;;
4957;SDS011;2494;51.872;9.688;2023-05-02T11:59:48;12.13;;;6.60;;
4957;SDS011;2494;51.872;9.688;2023-05-02T12:02:36;9.33;;;6.73;;
4957;SDS011;2494;51.872;9.688;2023-05-02T12:05:27;13.73;;;6.40;;
4957;SDS011;2494;51.872;9.688;2023-05-02T12:08:16;9.10;;;6.17;;
4957;SDS011;2494;51.872;9.688;2023-05-02T12:11:02;9.10;;;5.40;;
4957;SDS011;2494;51.872;9.688;2023-05-02T12:13:47;11.00;;;5.33;;
4957;SDS011;2494;51.872;9.688;2023-05-02T12:16:33;10.07;;;4.53;;
4957;SDS011;2494;51.872;9.688;2023-05-02T12:19:18;9.80;;;6.77;;
4957;SDS011;2494;51.872;9.688;2023-05-02T12:22:05;8.23;;;4.60;;
4957;SDS011;2494;51.872;9.688;2023-05-02T12:24:51;7.60;;;5.33;;
4957;SDS011;2494;51.872;9.688;2023-05-02T12:27:37;8.53;;;4.40;;
4957;SDS011;2494;51.872;9.688;2023-05-02T12:30:26;9.90;;;5.80;;
4957;SDS011;2494;51.872;9.688;2023-05-02T12:33:11;7.73;;;4.50;;
4957;SDS011;2494;51.872;9.688;2023-05-02T12:36:04;7.33;;;4.93;;
4957;SDS011;2494;51.872;9.688;2023-05-02T12:38:51;11.60;;;5.30;;
4957;SDS011;2494;51.872;9.688;2023-05-02T12:41:37;6.53;;;5.30;;
4957;SDS011;2494;51.872;9.688;2023-05-02T12:44:35;6.63;;;4.90;;
4957;SDS011;2494;51.872;9.688;2023-05-02T12:47:21;7.50;;;5.00;;
4957;SDS011;2494;51.872;9.688;2023-05-02T12:50:07;6.20;;;5.40;;
4957;SDS011;2494;51.872;9.688;2023-05-02T12:52:52;9.00;;;5.10;;
4957;SDS011;2494;51.872;9.688;2023-05-02T12:55:43;6.10;;;4.70;;
4957;SDS011;2494;51.872;9.688;2023-05-02T12:58:29;6.57;;;4.73;;
4957;SDS011;2494;51.872;9.688;2023-05-02T13:01:15;12.40;;;5.00;;
4957;SDS011;2494;51.872;9.688;2023-05-02T13:04:00;5.80;;;5.30;;
4957;SDS011;2494;51.872;9.688;2023-05-02T13:06:45;9.93;;;4.77;;
4957;SDS011;2494;51.872;9.688;2023-05-02T13:09:30;8.77;;;5.20;;
4957;SDS011;2494;51.872;9.688;2023-05-02T13:12:17;11.60;;;4.40;;
4957;SDS011;2494;51.872;9.688;2023-05-02T13:15:02;14.40;;;4.27;;
4957;SDS011;2494;51.872;9.688;2023-05-02T13:17:49;6.23;;;5.10;;
4957;SDS011;2494;51.872;9.688;2023-05-02T13:20:34;10.43;;;5.53;;
4957;SDS011;2494;51.872;9.688;2023-05-02T13:23:19;4.40;;;3.93;;
4957;SDS011;2494;51.872;9.688;2023-05-02T13:26:04;13.23;;;5.10;;
4957;SDS011;2494;51.872;9.688;2023-05-02T13:28:50;5.67;;;5.20;;
4957;SDS011;2494;51.872;9.688;2023-05-02T13:31:35;5.60;;;4.70;;
4957;SDS011;2494;51.872;9.688;2023-05-02T13:34:20;7.67;;;5.07;;
4957;SDS011;2494;51.872;9.688;2023-05-02T13:37:05;6.93;;;5.00;;
4957;SDS011;2494;51.872;9.688;2023-05-02T13:39:50;7.67;;;5.00;;
4957;SDS011;2494;51.872;9.688;2023-05-02T13:42:35;4.33;;;3.93;;
4957;SDS011;2494;51.872;9.688;2023-05-02T13:45:22;6.97;;;3.87;;
4957;SDS011;2494;51.872;9.688;2023-05-02T13:48:06;6.40;;;5.07;;
4957;SDS011;2494;51.872;9.688;2023-05-02T13:50:51;6.57;;;4.33;;
4957;SDS011;2494;51.872;9.688;2023-05-02T13:53:36;7.50;;;4.13;;
4957;SDS011;2494;51.872;9.688;2023-05-02T13:56:22;4.10;;;3.70;;
4957;SDS011;2494;51.872;9.688;2023-05-02T13:59:07;6.27;;;5.10;;
4957;SDS011;2494;51.872;9.688;2023-05-02T14:01:53;6.07;;;4.20;;
4957;SDS011;2494;51.872;9.688;2023-05-02T14:04:39;5.87;;;4.20;;
4957;SDS011;2494;51.872;9.688;2023-05-02T14:07:24;5.50;;;4.30;;
4957;SDS011;2494;51.872;9.688;2023-05-02T14:10:09;7.70;;;4.03;;
4957;SDS011;2494;51.872;9.688;2023-05-02T14:12:54;3.93;;;3.53;;
4957;SDS011;2494;51.872;9.688;2023-05-02T14:15:39;3.73;;;3.40;;
4957;SDS011;2494;51.872;9.688;2023-05-02T14:18:26;6.43;;;3.40;;
4957;SDS011;2494;51.872;9.688;2023-05-02T14:21:11;4.60;;;3.90;;
4957;SDS011;2494;51.872;9.688;2023-05-02T14:23:56;5.83;;;4.13;;
4957;SDS011;2494;51.872;9.688;2023-05-02T14:26:41;7.50;;;3.67;;
4957;SDS011;2494;51.872;9.688;2023-05-02T14:29:26;4.90;;;3.30;;
4957;SDS011;2494;51.872;9.688;2023-05-02T14:32:11;4.40;;;3.53;;
4957;SDS011;2494;51.872;9.688;2023-05-02T14:34:58;4.03;;;3.60;;
4957;SDS011;2494;51.872;9.688;2023-05-02T14:37:44;5.40;;;3.10;;
4957;SDS011;2494;51.872;9.688;2023-05-02T14:40:29;7.80;;;3.63;;
4957;SDS011;2494;51.872;9.688;2023-05-02T14:43:14;6.53;;;3.80;;
4957;SDS011;2494;51.872;9.688;2023-05-02T14:45:59;12.57;;;4.40;;
4957;SDS011;2494;51.872;9.688;2023-05-02T14:48:45;6.93;;;4.47;;
4957;SDS011;2494;51.872;9.688;2023-05-02T14:51:31;6.87;;;4.30;;
4957;SDS011;2494;51.872;9.688;2023-05-02T14:54:16;5.40;;;3.53;;
4957;SDS011;2494;51.872;9.688;2023-05-02T14:57:02;7.17;;;4.10;;
4957;SDS011;2494;51.872;9.688;2023-05-02T14:59:47;5.97;;;4.30;;
4957;SDS011;2494;51.872;9.688;2023-05-02T15:02:32;5.60;;;5.00;;
4957;SDS011;2494;51.872;9.688;2023-05-02T15:05:17;13.63;;;5.20;;
4957;SDS011;2494;51.872;9.688;2023-05-02T15:08:05;6.63;;;4.13;;
4957;SDS011;2494;51.872;9.688;2023-05-02T15:10:50;6.77;;;4.17;;
4957;SDS011;2494;51.872;9.688;2023-05-02T15:13:35;6.90;;;5.03;;
4957;SDS011;2494;51.872;9.688;2023-05-02T15:16:21;4.83;;;4.27;;
4957;SDS011;2494;51.872;9.688;2023-05-02T15:19:07;5.77;;;4.57;;
4957;SDS011;2494;51.872;9.688;2023-05-02T15:21:52;7.37;;;4.47;;
4957;SDS011;2494;51.872;9.688;2023-05-02T15:24:39;6.37;;;4.10;;
4957;SDS011;2494;51.872;9.688;2023-05-02T15:27:24;5.37;;;4.67;;
4957;SDS011;2494;51.872;9.688;2023-05-02T15:30:09;8.13;;;4.70;;
4957;SDS011;2494;51.872;9.688;2023-05-02T15:32:54;10.10;;;6.30;;
4957;SDS011;2494;51.872;9.688;2023-05-02T15:35:39;4.43;;;4.03;;
4957;SDS011;2494;51.872;9.688;2023-05-02T15:38:24;5.30;;;4.10;;
4957;SDS011;2494;51.872;9.688;2023-05-02T15:41:11;5.17;;;4.70;;
4957;SDS011;2494;51.872;9.688;2023-05-02T15:43:57;5.73;;;5.20;;
4957;SDS011;2494;51.872;9.688;2023-05-02T15:46:42;5.73;;;3.87;;
4957;SDS011;2494;51.872;9.688;2023-05-02T15:49:29;4.83;;;4.43;;
4957;SDS011;2494;51.872;9.688;2023-05-02T15:52:15;4.80;;;4.30;;
4957;SDS011;2494;51.872;9.688;2023-05-02T15:55:00;4.70;;;4.20;;
4957;SDS011;2494;51.872;9.688;2023-05-02T15:57:47;5.93;;;4.23;;
4957;SDS011;2494;51.872;9.688;2023-05-02T16:00:34;10.10;;;5.30;;
4957;SDS011;2494;51.872;9.688;2023-05-02T16:03:19;9.23;;;4.83;;
4957;SDS011;2494;51.872;9.688;2023-05-02T16:06:04;6.07;;;4.80;;
4957;SDS011;2494;51.872;9.688;2023-05-02T16:08:50;5.03;;;4.60;;
4957;SDS011;2494;51.872;9.688;2023-05-02T16:11:35;10.33;;;5.70;;
4957;SDS011;2494;51.872;9.688;2023-05-02T16:14:21;6.30;;;4.40;;
4957;SDS011;2494;51.872;9.688;2023-05-02T16:17:08;6.60;;;4.43;;
4957;SDS011;2494;51.872;9.688;2023-05-02T16:19:54;7.10;;;5.50;;
4957;SDS011;2494;51.872;9.688;2023-05-02T16:22:41;5.40;;;4.90;;
4957;SDS011;2494;51.872;9.688;2023-05-02T16:25:26;6.40;;;4.90;;
4957;SDS011;2494;51.872;9.688;2023-05-02T16:28:12;6.23;;;4.67;;
4957;SDS011;2494;51.872;9.688;2023-05-02T16:30:59;5.10;;;4.70;;
4957;SDS011;2494;51.872;9.688;2023-05-02T16:33:49;13.00;;;5.03;;
4957;SDS011;2494;51.872;9.688;2023-05-02T16:36:35;11.40;;;6.00;;
4957;SDS011;2494;51.872;9.688;2023-05-02T16:39:20;8.40;;;5.27;;
4957;SDS011;2494;51.872;9.688;2023-05-02T16:42:05;9.97;;;5.43;;
4957;SDS011;2494;51.872;9.688;2023-05-02T16:44:50;16.00;;;10.43;;
4957;SDS011;2494;51.872;9.688;2023-05-02T16:47:37;6.60;;;4.80;;
4957;SDS011;2494;51.872;9.688;2023-05-02T16:50:22;17.53;;;9.50;;
4957;SDS011;2494;51.872;9.688;2023-05-02T16:53:07;6.50;;;5.87;;
4957;SDS011;2494;51.872;9.688;2023-05-02T16:55:53;8.17;;;5.57;;
4957;SDS011;2494;51.872;9.688;2023-05-02T16:58:39;5.90;;;4.70;;
4957;SDS011;2494;51.872;9.688;2023-05-02T17:01:24;5.00;;;4.53;;
4957;SDS011;2494;51.872;9.688;2023-05-02T17:04:11;4.87;;;4.20;;
4957;SDS011;2494;51.872;9.688;2023-05-02T17:06:56;6.87;;;4.30;;
4957;SDS011;2494;51.872;9.688;2023-05-02T17:09:41;5.13;;;4.77;;
4957;SDS011;2494;51.872;9.688;2023-05-02T17:12:27;4.40;;;4.00;;
4957;SDS011;2494;51.872;9.688;2023-05-02T17:15:12;4.43;;;4.10;;
4957;SDS011;2494;51.872;9.688;2023-05-02T17:17:57;4.80;;;4.30;;